Time;durP1;ratioP1;P1;durP2;ratioP2;P2;SDS_P1;SDS_P2;PMS_P1;PMS_P2;Temp;Humidity;BMP_temperature;BMP_pressure;BME280_temperature;BME280_humidity;BME280_pressure;Samples;Min_cycle;Max_cycle;Signal;HPM_P1;HPM_P2
2020/12/06 00:00:06;;;;;;;9.20;6.70;;;1.90;92.60;;;;;;4833714;29;20060;-81
2020/12/06 00:02:33;;;;;;;12.03;8.47;;;1.90;92.60;;;;;;4852012;29;20503;-80
2020/12/06 00:05:00;;;;;;;12.27;7.87;;;1.90;92.60;;;;;;4892436;29;20487;-80
2020/12/06 00:07:29;;;;;;;14.37;9.67;;;1.90;92.60;;;;;;4862429;29;20056;-80
2020/12/06 00:09:55;;;;;;;17.37;11.60;;;1.90;92.60;;;;;;4895233;29;20065;-81
2020/12/06 00:12:22;;;;;;;14.27;10.70;;;2.00;92.70;;;;;;4864448;29;20041;-81
2020/12/06 00:14:48;;;;;;;14.63;11.13;;;2.00;92.70;;;;;;4894523;29;20064;-81
2020/12/06 00:17:15;;;;;;;13.90;9.43;;;2.00;92.70;;;;;;4875870;29;20044;-81
2020/12/06 00:19:41;;;;;;;12.63;8.70;;;2.00;92.70;;;;;;4863837;29;20037;-81
2020/12/06 00:22:12;;;;;;;14.17;9.57;;;2.10;92.70;;;;;;4870756;29;20381;-81
2020/12/06 00:24:38;;;;;;;10.83;7.80;;;2.00;92.70;;;;;;4862583;29;20051;-81
2020/12/06 00:27:05;;;;;;;17.43;11.33;;;2.00;92.70;;;;;;4862077;29;20074;-81
2020/12/06 00:29:31;;;;;;;14.13;10.57;;;2.00;92.70;;;;;;4861558;29;20045;-81
2020/12/06 00:31:58;;;;;;;17.80;12.57;;;2.00;92.70;;;;;;4845272;29;20052;-81
2020/12/06 00:34:25;;;;;;;16.17;12.37;;;2.00;92.70;;;;;;4890687;29;20071;-81
2020/12/06 00:36:52;;;;;;;15.20;10.97;;;2.00;92.80;;;;;;4848503;29;20033;-81
2020/12/06 00:39:19;;;;;;;13.03;8.93;;;2.00;92.80;;;;;;4862414;29;20674;-81
2020/12/06 00:41:45;;;;;;;18.57;10.77;;;2.00;92.80;;;;;;4858660;29;20497;-81
2020/12/06 00:44:12;;;;;;;12.20;9.57;;;2.00;92.80;;;;;;4863497;29;20481;-81
2020/12/06 00:46:38;;;;;;;15.03;11.03;;;1.90;92.80;;;;;;4863571;29;20036;-81
2020/12/06 00:49:05;;;;;;;15.53;11.67;;;1.90;92.90;;;;;;4875511;29;20054;-81
2020/12/06 00:51:32;;;;;;;16.13;11.40;;;1.90;92.90;;;;;;4875058;29;20037;-81
2020/12/06 00:53:59;;;;;;;15.67;11.93;;;1.90;92.90;;;;;;4861883;29;20774;-81
2020/12/06 00:56:26;;;;;;;15.63;11.43;;;2.00;93.00;;;;;;4874852;29;20045;-81
2020/12/06 00:58:53;;;;;;;14.67;10.30;;;2.00;92.90;;;;;;4858441;29;20396;-81
2020/12/06 01:01:20;;;;;;;17.53;11.67;;;2.00;93.00;;;;;;4837994;29;20052;-81
2020/12/06 01:03:47;;;;;;;20.67;13.30;;;2.00;92.90;;;;;;4861865;29;20044;-82
2020/12/06 01:06:15;;;;;;;16.30;11.27;;;2.00;92.90;;;;;;4862511;29;20043;-81
2020/12/06 01:08:43;;;;;;;15.13;10.73;;;2.00;93.00;;;;;;4893132;29;20049;-81
2020/12/06 01:11:11;;;;;;;17.57;11.50;;;2.00;92.90;;;;;;4864764;29;20044;-82
2020/12/06 01:13:38;;;;;;;18.07;13.07;;;2.00;93.00;;;;;;4864982;29;20040;-81
2020/12/06 01:16:04;;;;;;;15.77;11.80;;;2.10;93.00;;;;;;4841921;29;20049;-81
2020/12/06 01:18:31;;;;;;;15.53;11.17;;;2.00;92.90;;;;;;4891315;29;20056;-81
2020/12/06 01:20:57;;;;;;;15.23;9.90;;;2.00;92.90;;;;;;4895921;29;20043;-81
2020/12/06 01:23:24;;;;;;;12.27;9.30;;;2.10;92.90;;;;;;4861479;29;20053;-81
2020/12/06 01:25:50;;;;;;;12.10;8.97;;;2.10;92.90;;;;;;4841996;29;20480;-81
2020/12/06 01:28:18;;;;;;;15.57;11.00;;;2.00;93.00;;;;;;4857689;29;20377;-82
2020/12/06 01:30:44;;;;;;;15.50;10.77;;;2.00;93.00;;;;;;4828641;29;20044;-81
2020/12/06 01:33:11;;;;;;;17.07;10.90;;;2.00;93.00;;;;;;4858016;29;20488;-81
2020/12/06 01:35:37;;;;;;;16.10;11.30;;;2.10;93.00;;;;;;4859747;29;20052;-82
2020/12/06 01:38:04;;;;;;;15.80;10.60;;;2.10;93.00;;;;;;4836147;29;20041;-81
2020/12/06 01:40:30;;;;;;;15.90;10.83;;;2.10;93.00;;;;;;4854904;29;20064;-81
2020/12/06 01:42:57;;;;;;;17.23;11.80;;;2.10;93.00;;;;;;4845697;29;20535;-81
2020/12/06 01:45:23;;;;;;;16.83;11.27;;;2.10;92.90;;;;;;4856121;29;20036;-81
2020/12/06 01:47:50;;;;;;;14.70;10.20;;;2.10;93.00;;;;;;4859837;29;20048;-81
2020/12/06 01:50:18;;;;;;;14.47;11.40;;;2.10;93.00;;;;;;4857180;29;20062;-81
2020/12/06 01:52:46;;;;;;;17.47;13.07;;;2.10;93.00;;;;;;4858982;29;20491;-81
2020/12/06 01:55:13;;;;;;;13.90;10.43;;;2.10;93.00;;;;;;4859604;29;20043;-82
2020/12/06 01:57:40;;;;;;;17.27;12.07;;;2.10;93.00;;;;;;4825481;29;20409;-82
2020/12/06 02:00:07;;;;;;;16.30;12.17;;;2.10;93.00;;;;;;4844270;29;20483;-81
2020/12/06 02:02:35;;;;;;;17.27;12.60;;;2.10;93.00;;;;;;4858533;29;20052;-80
2020/12/06 02:05:05;;;;;;;15.80;10.90;;;2.20;93.00;;;;;;4871867;29;20045;-81
2020/12/06 02:07:32;;;;;;;17.80;11.87;;;2.20;93.00;;;;;;4876266;29;20515;-81
2020/12/06 02:10:00;;;;;;;19.63;11.07;;;2.20;93.00;;;;;;4860159;29;20501;-81
2020/12/06 02:12:26;;;;;;;14.23;10.57;;;2.20;93.00;;;;;;4875709;29;20032;-81
2020/12/06 02:14:53;;;;;;;15.43;10.67;;;2.20;93.00;;;;;;4860868;29;20054;-82
2020/12/06 02:17:19;;;;;;;14.77;10.60;;;2.20;93.00;;;;;;4861985;29;20044;-81
2020/12/06 02:19:46;;;;;;;15.47;10.13;;;2.20;93.00;;;;;;4861705;29;20041;-81
2020/12/06 02:22:12;;;;;;;14.10;9.83;;;2.20;93.00;;;;;;4862706;29;20041;-81
2020/12/06 02:24:39;;;;;;;10.97;7.47;;;2.30;93.00;;;;;;4848510;29;20041;-81
2020/12/06 02:27:05;;;;;;;14.27;10.00;;;2.20;92.90;;;;;;4847653;29;20045;-81
2020/12/06 02:29:32;;;;;;;15.93;9.97;;;2.20;93.00;;;;;;4844357;29;20480;-81
2020/12/06 02:31:58;;;;;;;10.73;7.83;;;2.20;93.00;;;;;;4859997;29;20044;-81
2020/12/06 02:34:25;;;;;;;13.67;9.47;;;2.20;93.00;;;;;;4847524;29;20033;-81
2020/12/06 02:36:51;;;;;;;13.13;9.43;;;2.30;93.00;;;;;;4846751;29;20048;-81
2020/12/06 02:39:18;;;;;;;11.37;7.97;;;2.20;93.00;;;;;;4846498;29;20377;-82
2020/12/06 02:41:45;;;;;;;10.50;7.83;;;2.20;93.00;;;;;;4844821;29;20064;-81
2020/12/06 02:44:14;;;;;;;10.87;7.90;;;2.20;93.00;;;;;;4864501;29;20056;-88
2020/12/06 02:46:41;;;;;;;12.10;8.60;;;2.30;93.00;;;;;;4846970;29;20416;-88
2020/12/06 02:49:08;;;;;;;11.33;8.67;;;2.20;93.00;;;;;;4844442;29;20400;-88
2020/12/06 02:51:35;;;;;;;12.40;8.67;;;2.20;93.00;;;;;;4861680;29;20041;-88
2020/12/06 02:54:02;;;;;;;10.50;7.93;;;2.20;93.00;;;;;;4844161;29;20045;-89
2020/12/06 02:56:28;;;;;;;11.10;8.47;;;2.20;93.00;;;;;;4827146;29;20503;-89
2020/12/06 02:58:55;;;;;;;10.23;7.50;;;2.20;93.00;;;;;;4845009;29;20037;-88
2020/12/06 03:01:26;;;;;;;12.23;8.07;;;2.20;93.00;;;;;;4894439;29;20055;-88
2020/12/06 03:03:53;;;;;;;8.90;6.80;;;2.20;93.20;;;;;;4861975;29;20079;-88
2020/12/06 03:06:20;;;;;;;8.80;6.00;;;2.20;93.00;;;;;;4859076;29;20049;-89
2020/12/06 03:08:46;;;;;;;9.53;6.73;;;2.20;93.00;;;;;;4847701;29;20044;-88
2020/12/06 03:11:12;;;;;;;10.87;7.60;;;2.20;93.00;;;;;;4863761;29;20047;-88
2020/12/06 03:13:39;;;;;;;11.03;8.40;;;2.20;93.00;;;;;;4842167;29;20038;-88
2020/12/06 03:16:06;;;;;;;11.23;7.50;;;2.20;93.00;;;;;;4864266;29;20048;-89
2020/12/06 03:18:33;;;;;;;9.80;6.63;;;2.20;92.90;;;;;;4860540;29;20480;-88
2020/12/06 03:21:00;;;;;;;11.10;8.30;;;2.20;92.90;;;;;;4861149;29;20377;-88
2020/12/06 03:23:27;;;;;;;7.77;5.93;;;2.30;92.90;;;;;;4862607;29;20037;-88
2020/12/06 03:25:53;;;;;;;9.07;7.10;;;2.30;92.90;;;;;;4858511;29;20036;-88
2020/12/06 03:28:20;;;;;;;11.27;8.37;;;2.30;93.00;;;;;;4859300;29;20056;-88
2020/12/06 03:30:46;;;;;;;11.73;8.03;;;2.30;92.90;;;;;;4852512;29;20041;-87
2020/12/06 03:33:13;;;;;;;10.87;7.37;;;2.30;92.90;;;;;;4862878;29;20043;-88
2020/12/06 03:35:39;;;;;;;11.43;8.03;;;2.30;92.90;;;;;;4863906;29;20045;-87
2020/12/06 03:38:06;;;;;;;11.70;8.40;;;2.30;92.90;;;;;;4866215;29;20036;-87
2020/12/06 03:40:32;;;;;;;9.90;6.70;;;2.30;92.90;;;;;;4851221;29;20036;-88
2020/12/06 03:42:59;;;;;;;10.83;8.10;;;2.30;92.90;;;;;;4864513;29;20033;-88
2020/12/06 03:45:25;;;;;;;9.23;6.77;;;2.30;92.90;;;;;;4866494;29;20041;-88
2020/12/06 03:47:55;;;;;;;10.30;7.23;;;2.30;92.90;;;;;;4862395;29;20046;-88
2020/12/06 03:50:22;;;;;;;11.03;7.60;;;2.30;92.90;;;;;;4880737;29;20044;-88
2020/12/06 03:52:49;;;;;;;13.50;8.80;;;2.30;92.90;;;;;;4862425;29;20049;-89
2020/12/06 03:55:16;;;;;;;11.07;8.77;;;2.40;92.90;;;;;;4877224;29;20037;-89
2020/12/06 03:57:43;;;;;;;11.50;8.37;;;2.40;92.90;;;;;;4861193;29;20369;-89
2020/12/06 04:00:09;;;;;;;8.80;6.17;;;2.40;92.90;;;;;;4846911;29;20041;-88
2020/12/06 04:02:36;;;;;;;12.83;7.87;;;2.40;92.90;;;;;;4879543;29;20049;-89
2020/12/06 04:05:03;;;;;;;15.77;12.13;;;2.40;92.80;;;;;;4844408;29;20055;-88
2020/12/06 04:07:31;;;;;;;16.43;10.73;;;2.40;92.80;;;;;;4850006;29;20032;-88
2020/12/06 04:09:57;;;;;;;15.27;10.63;;;2.50;92.80;;;;;;4860427;29;20041;-88
2020/12/06 04:12:24;;;;;;;11.87;9.13;;;2.50;92.70;;;;;;4861717;29;20049;-88
2020/12/06 04:14:50;;;;;;;17.77;11.90;;;2.50;92.70;;;;;;4865241;29;20052;-89
2020/12/06 04:17:17;;;;;;;16.63;12.13;;;2.50;92.70;;;;;;4850708;29;20041;-89
2020/12/06 04:19:43;;;;;;;17.43;11.80;;;2.60;92.70;;;;;;4846780;29;20048;-88
2020/12/06 04:22:09;;;;;;;18.53;12.77;;;2.60;92.60;;;;;;4895356;29;20484;-88
2020/12/06 04:24:36;;;;;;;14.93;11.10;;;2.60;92.60;;;;;;4847311;29;20045;-89
2020/12/06 04:27:02;;;;;;;13.73;9.83;;;2.60;92.60;;;;;;4848808;29;20040;-89
2020/12/06 04:29:29;;;;;;;14.17;10.43;;;2.60;92.60;;;;;;4845330;29;20055;-87
2020/12/06 04:31:55;;;;;;;13.80;9.13;;;2.70;92.60;;;;;;4863329;29;20484;-88
2020/12/06 04:34:22;;;;;;;10.80;7.97;;;2.70;92.60;;;;;;4860267;29;20032;-89
2020/12/06 04:36:48;;;;;;;12.73;9.40;;;2.70;92.60;;;;;;4863721;29;20036;-88
2020/12/06 04:39:15;;;;;;;12.97;8.93;;;2.60;92.60;;;;;;4845163;29;20392;-89
2020/12/06 04:41:41;;;;;;;14.57;9.77;;;2.60;92.60;;;;;;4866318;29;20052;-88
2020/12/06 04:44:08;;;;;;;14.97;11.07;;;2.60;92.60;;;;;;4863841;29;20052;-89
2020/12/06 04:46:38;;;;;;;16.77;10.57;;;2.70;92.60;;;;;;4842103;29;20041;-89
2020/12/06 04:49:05;;;;;;;18.43;12.30;;;2.60;92.50;;;;;;4878943;29;20052;-88
2020/12/06 04:51:40;;;;;;;17.93;13.13;;;2.60;92.50;;;;;;4881102;29;20388;-88
2020/12/06 04:54:08;;;;;;;21.57;13.87;;;2.60;92.50;;;;;;4877962;29;20492;-88
2020/12/06 04:56:38;;;;;;;17.33;13.23;;;2.60;92.50;;;;;;4859665;29;20040;-88
2020/12/06 04:59:05;;;;;;;17.97;12.83;;;2.60;92.50;;;;;;4862089;29;20041;-88
2020/12/06 05:01:37;;;;;;;18.73;12.17;;;2.60;92.50;;;;;;4862290;29;20037;-88
2020/12/06 05:04:10;;;;;;;16.80;12.47;;;2.50;92.50;;;;;;4876228;29;20068;-88
2020/12/06 05:06:43;;;;;;;21.57;13.27;;;2.50;92.50;;;;;;4860384;29;20044;-87
2020/12/06 05:09:14;;;;;;;19.17;13.10;;;2.40;92.40;;;;;;4879872;29;20049;-88
2020/12/06 05:11:43;;;;;;;19.43;13.47;;;2.40;92.40;;;;;;4876383;29;20055;-88
2020/12/06 05:14:09;;;;;;;20.40;13.73;;;2.40;92.70;;;;;;4864612;29;20051;-88
2020/12/06 05:16:38;;;;;;;22.77;16.37;;;2.40;92.50;;;;;;4860653;29;20032;-88
2020/12/06 05:19:07;;;;;;;19.17;13.23;;;2.40;92.50;;;;;;4879348;29;20361;-87
2020/12/06 05:21:41;;;;;;;17.67;13.43;;;2.40;92.50;;;;;;4865660;29;20036;-88
2020/12/06 05:24:08;;;;;;;18.17;13.07;;;2.40;92.50;;;;;;4856690;29;20046;-88
2020/12/06 05:26:35;;;;;;;16.97;12.37;;;2.40;92.50;;;;;;4894637;29;20044;-89
2020/12/06 05:29:03;;;;;;;18.37;13.17;;;2.40;92.50;;;;;;4864693;29;20044;-87
2020/12/06 05:31:30;;;;;;;19.17;14.50;;;2.40;92.50;;;;;;4878306;29;20045;-87
2020/12/06 05:33:57;;;;;;;21.47;13.17;;;2.40;92.50;;;;;;4864040;29;20392;-85
2020/12/06 05:36:23;;;;;;;17.60;12.53;;;2.40;92.50;;;;;;4876448;29;20048;-87
2020/12/06 05:38:50;;;;;;;18.20;12.73;;;2.40;92.50;;;;;;4860401;29;20063;-85
2020/12/06 05:41:17;;;;;;;20.73;13.37;;;2.30;92.50;;;;;;4877357;29;20404;-88
2020/12/06 05:43:44;;;;;;;18.17;13.17;;;2.30;92.50;;;;;;4858889;29;20041;-87
2020/12/06 05:46:12;;;;;;;39.37;24.80;;;2.30;92.50;;;;;;4872981;29;20040;-89
2020/12/06 05:48:40;;;;;;;69.87;48.40;;;2.40;92.60;;;;;;4876880;29;20041;-89
2020/12/06 05:51:07;;;;;;;94.97;56.53;;;2.30;92.50;;;;;;4863289;29;20396;-86
2020/12/06 05:53:35;;;;;;;41.23;26.30;;;2.30;92.50;;;;;;4846925;29;20062;-88
2020/12/06 05:56:14;;;;;;;30.53;20.43;;;2.30;92.60;;;;;;4862265;29;20384;-88
2020/12/06 05:58:42;;;;;;;25.63;17.87;;;2.40;92.60;;;;;;4876352;29;20052;-80
2020/12/06 06:01:14;;;;;;;29.07;19.23;;;2.40;92.80;;;;;;4867713;29;20484;-79
2020/12/06 06:03:43;;;;;;;22.50;15.10;;;2.40;92.80;;;;;;4861607;29;20036;-87
2020/12/06 06:06:21;;;;;;;22.50;14.07;;;2.40;92.50;;;;;;4857398;29;20049;-88
2020/12/06 06:08:51;;;;;;;21.43;15.93;;;2.40;92.50;;;;;;4856578;29;20049;-88
2020/12/06 06:11:26;;;;;;;24.27;16.20;;;2.40;92.50;;;;;;4871864;29;20036;-79
2020/12/06 06:14:11;;;;;;;24.00;15.57;;;2.40;92.50;;;;;;4875808;29;20033;-80
2020/12/06 06:16:38;;;;;;;26.43;16.47;;;2.40;92.50;;;;;;4883732;29;20067;-80
2020/12/06 06:19:05;;;;;;;24.27;16.73;;;2.40;92.50;;;;;;4853978;29;20053;-88
2020/12/06 06:21:36;;;;;;;30.07;19.73;;;2.40;92.50;;;;;;4863982;29;20068;-88
2020/12/06 06:24:08;;;;;;;27.60;19.43;;;2.40;92.50;;;;;;4861688;29;20396;-89
2020/12/06 06:26:41;;;;;;;28.02;18.88;;;2.40;92.60;;;;;;4856537;29;20047;-89
2020/12/06 06:29:17;;;;;;;27.40;18.57;;;2.40;92.60;;;;;;4857196;29;20048;-88
2020/12/06 06:31:47;;;;;;;30.00;19.40;;;2.40;92.60;;;;;;4883733;29;20091;-88
2020/12/06 06:34:15;;;;;;;27.73;18.93;;;2.40;92.60;;;;;;4885466;29;20037;-88
2020/12/06 06:36:44;;;;;;;29.23;20.70;;;2.40;92.60;;;;;;4853593;29;20508;-87
2020/12/06 06:39:17;;;;;;;24.80;17.33;;;2.50;92.60;;;;;;4867276;29;20049;-88
2020/12/06 06:42:10;;;;;;;31.57;20.93;;;2.40;92.60;;;;;;4878302;29;20419;-87
2020/12/06 06:44:41;;;;;;;28.15;18.45;;;2.50;92.60;;;;;;4878390;29;20036;-85
2020/12/06 06:47:14;;;;;;;30.37;18.07;;;2.40;92.60;;;;;;4869922;29;20045;-84
2020/12/06 06:49:59;;;;;;;31.17;20.10;;;2.40;92.70;;;;;;4873771;29;20045;-89
2020/12/06 06:52:27;;;;;;;39.37;26.10;;;2.40;92.70;;;;;;4873842;29;20407;-88
2020/12/06 06:54:55;;;;;;;50.30;31.60;;;2.40;92.60;;;;;;4857010;29;20388;-83
2020/12/06 06:57:24;;;;;;;34.40;22.47;;;2.40;92.70;;;;;;4868065;29;20040;-85
2020/12/06 06:59:58;;;;;;;30.10;20.43;;;2.40;92.70;;;;;;4860269;29;20036;-86
2020/12/06 07:02:34;;;;;;;28.87;19.17;;;2.50;92.70;;;;;;4859441;29;20629;-87
2020/12/06 07:05:05;;;;;;;25.67;17.83;;;2.40;92.70;;;;;;4878849;29;21239;-86
2020/12/06 07:07:47;;;;;;;29.77;19.87;;;2.50;92.70;;;;;;4877270;29;20048;-86
2020/12/06 07:10:18;;;;;;;24.77;16.80;;;2.50;92.70;;;;;;4873458;29;20051;-85
2020/12/06 07:13:05;;;;;;;26.30;16.97;;;2.50;92.70;;;;;;4856813;29;20041;-86
2020/12/06 07:15:32;;;;;;;25.73;18.60;;;2.50;92.70;;;;;;4862271;29;20064;-86
2020/12/06 07:17:59;;;;;;;28.03;18.67;;;2.50;92.70;;;;;;4851279;29;20032;-85
2020/12/06 07:20:26;;;;;;;27.43;18.63;;;2.60;92.70;;;;;;4865543;29;20051;-85
2020/12/06 07:22:54;;;;;;;26.17;17.10;;;2.60;92.70;;;;;;4867131;29;20412;-85
2020/12/06 07:25:22;;;;;;;29.60;19.20;;;2.50;92.60;;;;;;4887194;29;20436;-84
2020/12/06 07:27:49;;;;;;;31.47;19.83;;;2.50;92.60;;;;;;4881753;29;20063;-85
2020/12/06 07:30:19;;;;;;;29.57;20.57;;;2.50;92.60;;;;;;4877994;29;20725;-86
2020/12/06 07:32:47;;;;;;;29.57;19.07;;;2.50;92.60;;;;;;4880013;29;20044;-85
2020/12/06 07:35:15;;;;;;;30.30;21.13;;;2.50;92.70;;;;;;4850621;29;20036;-86
2020/12/06 07:37:43;;;;;;;41.30;25.37;;;2.40;92.70;;;;;;4864447;29;20041;-85
2020/12/06 07:40:10;;;;;;;36.00;23.63;;;2.40;92.70;;;;;;4866067;29;20040;-86
2020/12/06 07:42:38;;;;;;;31.67;20.67;;;2.40;92.70;;;;;;4865551;29;20079;-86
2020/12/06 07:45:06;;;;;;;33.67;21.73;;;2.40;92.80;;;;;;4862183;29;20400;-85
2020/12/06 07:47:33;;;;;;;28.83;19.77;;;2.40;92.80;;;;;;4895964;29;20051;-84
2020/12/06 07:50:01;;;;;;;34.30;23.43;;;2.40;92.80;;;;;;4864894;29;20036;-86
2020/12/06 07:52:29;;;;;;;30.73;21.17;;;2.40;92.80;;;;;;4873154;29;20041;-87
2020/12/06 07:55:09;;;;;;;33.07;21.47;;;2.40;92.90;;;;;;4861980;29;20055;-87
2020/12/06 07:57:42;;;;;;;28.97;19.27;;;2.40;92.90;;;;;;4878934;29;20037;-85
2020/12/06 08:00:12;;;;;;;25.00;16.17;;;2.40;93.20;;;;;;4877479;29;20047;-86
2020/12/06 08:03:04;;;;;;;34.20;21.87;;;2.40;92.90;;;;;;4877513;29;20045;-86
2020/12/06 08:05:34;;;;;;;35.33;22.43;;;2.50;93.00;;;;;;4862322;29;20055;-85
2020/12/06 08:08:09;;;;;;;29.83;19.27;;;2.50;92.90;;;;;;4880601;29;20036;-87
2020/12/06 08:10:39;;;;;;;28.20;17.87;;;2.50;92.90;;;;;;4861780;29;20048;-84
2020/12/06 08:13:10;;;;;;;25.77;17.03;;;2.60;93.00;;;;;;4880201;29;20055;-82
2020/12/06 08:15:37;;;;;;;26.53;17.90;;;2.60;92.90;;;;;;4894694;29;20048;-82
2020/12/06 08:18:14;;;;;;;27.90;18.97;;;2.70;92.90;;;;;;4863319;29;20044;-82
2020/12/06 08:20:55;;;;;;;25.83;16.50;;;2.70;92.90;;;;;;4876502;29;20037;-82
2020/12/06 08:23:40;;;;;;;27.13;17.13;;;2.80;92.90;;;;;;4864432;29;20056;-82
2020/12/06 08:26:06;;;;;;;27.17;18.53;;;2.80;92.90;;;;;;4878366;29;20404;-83
2020/12/06 08:28:33;;;;;;;27.10;18.73;;;2.80;92.80;;;;;;4858830;29;20393;-82
2020/12/06 08:31:00;;;;;;;24.80;15.47;;;2.80;92.80;;;;;;4877332;29;20041;-82
2020/12/06 08:33:28;;;;;;;20.50;13.63;;;2.90;92.80;;;;;;4857623;29;20033;-82
2020/12/06 08:35:56;;;;;;;19.30;13.80;;;2.90;92.80;;;;;;4878335;29;20136;-82
2020/12/06 08:38:33;;;;;;;22.53;15.67;;;2.90;92.80;;;;;;4876722;29;20040;-82
2020/12/06 08:41:11;;;;;;;25.73;18.50;;;2.90;92.80;;;;;;4855076;29;20060;-82
2020/12/06 08:43:45;;;;;;;30.67;20.37;;;2.90;92.80;;;;;;4869281;29;20485;-82
2020/12/06 08:46:13;;;;;;;30.73;20.23;;;2.90;92.80;;;;;;4890791;29;20380;-82
2020/12/06 08:48:41;;;;;;;33.27;20.87;;;2.90;92.80;;;;;;4888423;29;20044;-83
2020/12/06 08:51:24;;;;;;;29.63;19.90;;;3.00;92.80;;;;;;4890356;29;20040;-83
2020/12/06 08:53:50;;;;;;;30.17;19.85;;;3.00;92.80;;;;;;4833269;29;20037;-82
2020/12/06 08:56:43;;;;;;;35.43;23.97;;;3.00;92.80;;;;;;4874796;29;20052;-83
2020/12/06 08:59:15;;;;;;;31.65;20.15;;;3.00;92.70;;;;;;4859320;29;20063;-82
2020/12/06 09:01:58;;;;;;;36.97;24.02;;;3.00;92.70;;;;;;4877968;29;20048;-82
2020/12/06 09:04:25;;;;;;;35.30;22.55;;;2.90;92.70;;;;;;4876707;29;20036;-84
2020/12/06 09:06:53;;;;;;;34.07;20.60;;;2.90;92.80;;;;;;4860169;29;20053;-83
2020/12/06 09:09:20;;;;;;;29.10;19.70;;;2.90;92.80;;;;;;4843683;29;20056;-89
2020/12/06 09:11:46;;;;;;;30.50;20.90;;;2.90;92.80;;;;;;4861381;29;20063;-85
2020/12/06 09:14:12;;;;;;;30.47;21.40;;;3.00;92.90;;;;;;4873202;29;20071;-87
2020/12/06 09:16:41;;;;;;;29.63;20.10;;;3.00;92.80;;;;;;4831143;29;20055;-87
2020/12/06 09:19:10;;;;;;;24.40;16.87;;;3.10;92.80;;;;;;4846920;29;20531;-85
2020/12/06 09:21:36;;;;;;;26.83;17.70;;;3.20;92.80;;;;;;4858384;29;20036;-84
2020/12/06 09:24:03;;;;;;;29.17;19.93;;;3.30;92.80;;;;;;4884514;29;20048;-85
2020/12/06 09:26:30;;;;;;;30.87;20.30;;;3.40;92.70;;;;;;4889938;29;20048;-86
2020/12/06 09:28:57;;;;;;;32.07;22.43;;;3.40;92.60;;;;;;4876163;29;20036;-85
2020/12/06 09:31:24;;;;;;;29.20;18.60;;;3.50;92.60;;;;;;4880078;29;20056;-84
2020/12/06 09:33:52;;;;;;;29.97;18.77;;;3.50;92.60;;;;;;4859550;29;20041;-85
2020/12/06 09:36:19;;;;;;;28.17;19.23;;;3.60;92.60;;;;;;4878256;29;20502;-85
2020/12/06 09:38:46;;;;;;;30.17;20.73;;;3.70;92.50;;;;;;4859620;29;20055;-85
2020/12/06 09:41:12;;;;;;;26.73;17.03;;;3.80;92.40;;;;;;4863753;29;20405;-85
2020/12/06 09:43:48;;;;;;;28.40;20.42;;;3.90;92.40;;;;;;4877499;29;20045;-85
2020/12/06 09:46:15;;;;;;;27.43;19.53;;;4.00;92.40;;;;;;4860391;29;20049;-85
2020/12/06 09:48:42;;;;;;;29.20;19.85;;;4.20;92.40;;;;;;4876821;29;20032;-86
2020/12/06 09:51:09;;;;;;;25.93;17.63;;;4.30;92.40;;;;;;4862037;29;20507;-87
2020/12/06 09:53:35;;;;;;;28.48;20.13;;;4.40;92.30;;;;;;4875502;29;20036;-86
2020/12/06 09:56:02;;;;;;;25.20;18.27;;;4.50;92.20;;;;;;4870764;29;20044;-87
2020/12/06 09:58:29;;;;;;;24.77;18.33;;;4.50;92.20;;;;;;4838493;29;20519;-85
2020/12/06 10:00:55;;;;;;;24.85;17.40;;;4.70;92.30;;;;;;4890811;29;20048;-85
2020/12/06 10:03:22;;;;;;;24.73;18.02;;;4.80;92.60;;;;;;4843020;29;20049;-85
2020/12/06 10:05:48;;;;;;;24.33;15.63;;;4.90;92.20;;;;;;4861861;29;20045;-84
2020/12/06 10:08:15;;;;;;;23.25;17.33;;;5.00;92.20;;;;;;4841590;29;20064;-79
2020/12/06 10:10:41;;;;;;;24.35;17.75;;;5.10;92.10;;;;;;4891116;29;20040;-85
2020/12/06 10:13:08;;;;;;;25.63;18.98;;;5.20;92.10;;;;;;4847334;29;20037;-85
2020/12/06 10:15:35;;;;;;;24.55;17.65;;;5.20;91.70;;;;;;4861656;29;20059;-85
2020/12/06 10:18:01;;;;;;;26.58;19.40;;;5.20;91.60;;;;;;4845288;29;20048;-86
2020/12/06 10:20:28;;;;;;;21.23;16.10;;;5.30;91.80;;;;;;4857307;29;20044;-79
2020/12/06 10:22:54;;;;;;;24.15;18.40;;;5.40;91.90;;;;;;4850960;29;20041;-79
2020/12/06 10:25:21;;;;;;;22.25;17.00;;;5.50;91.20;;;;;;4872161;29;20056;-80
2020/12/06 10:27:47;;;;;;;21.80;16.58;;;5.50;91.30;;;;;;4877391;29;20032;-79
2020/12/06 10:30:14;;;;;;;23.38;16.92;;;5.40;91.20;;;;;;4860564;29;20045;-79
2020/12/06 10:32:40;;;;;;;26.75;19.40;;;5.40;91.20;;;;;;4861217;29;20407;-79
2020/12/06 10:35:10;;;;;;;24.25;17.67;;;5.40;90.80;;;;;;4862073;29;20036;-79
2020/12/06 10:37:42;;;;;;;25.60;18.13;;;5.40;90.80;;;;;;4859497;29;20059;-80
2020/12/06 10:40:08;;;;;;;23.75;16.90;;;5.30;90.70;;;;;;4897899;29;20056;-80
2020/12/06 10:42:34;;;;;;;23.85;18.05;;;5.40;90.80;;;;;;4851997;29;20407;-80
2020/12/06 10:45:01;;;;;;;25.00;17.65;;;5.40;90.80;;;;;;4891365;29;20063;-80
2020/12/06 10:47:27;;;;;;;21.92;16.10;;;5.50;90.70;;;;;;4876562;29;20041;-86
2020/12/06 10:49:54;;;;;;;24.50;18.50;;;5.50;90.70;;;;;;4864564;29;20045;-87
2020/12/06 10:52:20;;;;;;;26.07;18.30;;;5.60;90.80;;;;;;4866971;29;20088;-87
2020/12/06 10:54:47;;;;;;;26.15;19.05;;;5.70;90.30;;;;;;4851665;29;20053;-88
2020/12/06 10:57:13;;;;;;;26.17;18.63;;;5.70;90.20;;;;;;4877938;29;20052;-86
2020/12/06 10:59:40;;;;;;;25.30;17.67;;;5.70;89.90;;;;;;4861428;29;20785;-86
2020/12/06 11:02:06;;;;;;;24.60;18.67;;;5.70;90.00;;;;;;4838560;29;20053;-87
2020/12/06 11:04:33;;;;;;;26.20;19.50;;;5.80;90.00;;;;;;4878102;29;20587;-85
2020/12/06 11:06:59;;;;;;;23.80;16.52;;;5.80;89.90;;;;;;4892311;29;20519;-81
2020/12/06 11:09:26;;;;;;;25.35;18.83;;;5.80;89.80;;;;;;4865964;29;20052;-81
2020/12/06 11:11:54;;;;;;;23.15;16.75;;;5.80;89.30;;;;;;4859166;29;20045;-80
2020/12/06 11:14:21;;;;;;;23.30;17.45;;;5.90;89.50;;;;;;4860815;29;20391;-80
2020/12/06 11:16:51;;;;;;;21.98;15.70;;;5.90;89.70;;;;;;4898059;29;20056;-86
2020/12/06 11:19:18;;;;;;;21.63;16.42;;;5.90;89.60;;;;;;4896302;29;20040;-85
2020/12/06 11:21:45;;;;;;;21.70;16.63;;;5.90;89.60;;;;;;4859152;29;20400;-80
2020/12/06 11:24:11;;;;;;;22.52;16.58;;;5.90;89.80;;;;;;4890924;29;20512;-80
2020/12/06 11:26:38;;;;;;;23.80;17.08;;;5.90;90.00;;;;;;4861404;29;20033;-80
2020/12/06 11:29:04;;;;;;;21.27;16.13;;;5.90;90.00;;;;;;4881079;29;20051;-80
2020/12/06 11:31:31;;;;;;;27.17;18.27;;;5.90;89.90;;;;;;4863356;29;20040;-80
2020/12/06 11:34:00;;;;;;;22.95;17.35;;;6.00;89.70;;;;;;4874991;29;20055;-80
2020/12/06 11:36:27;;;;;;;22.73;16.83;;;6.00;89.40;;;;;;4893467;29;20400;-80
2020/12/06 11:38:56;;;;;;;22.83;16.85;;;6.00;89.30;;;;;;4879323;29;20041;-81
2020/12/06 11:41:26;;;;;;;22.63;16.13;;;6.00;89.30;;;;;;4893160;29;20483;-80
2020/12/06 11:43:53;;;;;;;24.45;18.02;;;6.00;89.50;;;;;;4865327;29;20043;-80
2020/12/06 11:46:21;;;;;;;23.90;16.10;;;6.00;89.10;;;;;;4892068;29;20061;-80
2020/12/06 11:48:53;;;;;;;21.80;15.43;;;6.00;89.20;;;;;;4878017;29;20040;-81
2020/12/06 11:51:29;;;;;;;24.92;18.45;;;6.00;89.30;;;;;;4852971;29;20063;-81
2020/12/06 11:53:55;;;;;;;24.38;17.33;;;6.00;88.70;;;;;;4892567;29;20789;-80
2020/12/06 11:56:22;;;;;;;22.63;15.73;;;6.00;88.90;;;;;;4874507;29;20032;-80
2020/12/06 11:58:49;;;;;;;23.42;17.13;;;6.00;89.00;;;;;;4891121;29;20049;-86
2020/12/06 12:01:16;;;;;;;21.20;14.70;;;6.00;88.80;;;;;;4876706;29;20032;-85
2020/12/06 12:03:42;;;;;;;21.08;15.23;;;6.00;89.10;;;;;;4851163;29;20056;-80
2020/12/06 12:06:09;;;;;;;21.30;15.93;;;6.00;89.20;;;;;;4880628;29;20059;-80
2020/12/06 12:08:35;;;;;;;21.50;15.60;;;6.00;89.30;;;;;;4866511;29;20053;-80
2020/12/06 12:11:09;;;;;;;20.60;15.25;;;6.00;89.20;;;;;;4847800;29;20052;-80
2020/12/06 12:13:37;;;;;;;23.58;17.15;;;6.00;89.40;;;;;;4890189;29;20081;-81
2020/12/06 12:16:04;;;;;;;23.60;16.40;;;6.00;89.30;;;;;;4892924;29;20065;-80
2020/12/06 12:18:30;;;;;;;24.27;16.27;;;6.00;89.40;;;;;;4893992;29;20052;-81
2020/12/06 12:20:57;;;;;;;23.40;16.73;;;6.00;89.50;;;;;;4895862;29;20400;-85
2020/12/06 12:23:24;;;;;;;22.67;16.60;;;6.00;90.00;;;;;;4873623;29;20040;-81
2020/12/06 12:25:54;;;;;;;21.38;15.95;;;6.00;89.50;;;;;;4873906;29;20053;-81
2020/12/06 12:28:20;;;;;;;23.73;17.08;;;6.00;89.60;;;;;;4864780;29;20123;-85
2020/12/06 12:30:47;;;;;;;21.77;14.90;;;6.00;89.70;;;;;;4879959;29;20377;-86
2020/12/06 12:33:13;;;;;;;19.80;15.30;;;6.00;89.90;;;;;;4875234;29;20064;-85
2020/12/06 12:35:40;;;;;;;21.40;15.25;;;6.10;90.00;;;;;;4862599;29;20059;-81
2020/12/06 12:38:06;;;;;;;23.98;17.00;;;6.10;90.00;;;;;;4871776;29;20052;-85
2020/12/06 12:40:33;;;;;;;21.90;15.93;;;6.10;90.10;;;;;;4880006;29;20045;-85
2020/12/06 12:43:02;;;;;;;23.08;16.45;;;6.20;90.10;;;;;;4861698;29;20055;-85